עמוד ראשי
METAR-TAF:

METAR-TAF

שדות תעופה :

Point Hope, אלסקה, ארצות הברית

קו רוחב: 68-21N, קו אורך: 166-48W, גובה: 4מטר

תצפית מזג אוויר נוכחית

הדו"ח נערך לפני 27דקות, בשעה 16:18 UTC
רוח 15קשר מכיוון דרום/דרום-מזרח
טמפרטורת 1 צלסיוס
לחות 100%
לחץ 1022 hPa
ראות: 12.9קילומטר
מעונן בגובה 400רגל

METAR: PAPO 151618Z AUTO 16015KT 8SM OVC004 01/01 A3019 RMK AO2 FZRANO

זמן: 08:45 (16:45 UTC)


TAF: חסר

תצפיות ותחזיות מזג אוויר לגבי יותר מ- 4,000 שדות תעופה ברחבי העולם. דוחות METAR ו- TAF.

התחנות הזמינות מסומנות בנקודות צהובות ואדומות על גבי המפה.

העבר את העכבר לנקודה הצבעונית על מנת לראות את שם התחנה.

לאחר מכן, לחץ כדי לראות את תוכן ואת תחזיות מזג האוויר.

כדי לשנות את המפה: לחץ על הכפתורים הירוקים עם הפלוס השחור כדי להתקרב; על הכפתור הירוק עם המקף כדי להתרחק; או בחיצים הירוקים למפות סמוכות.


METAR-TAF: